createdAt,value
2023-01-15T00:01:06.307Z,8.40
2023-01-15T00:04:16.938Z,8.53
2023-01-15T00:07:20.398Z,8.51
2023-01-15T00:10:23.598Z,8.51
2023-01-15T00:13:29.890Z,8.55
2023-01-15T00:16:33.027Z,8.57
2023-01-15T00:19:40.152Z,8.57
2023-01-15T00:22:43.233Z,8.59
2023-01-15T00:26:04.257Z,8.60
2023-01-15T00:29:07.944Z,8.63
2023-01-15T00:32:12.083Z,8.64
2023-01-15T00:35:18.754Z,8.68
2023-01-15T00:38:21.880Z,8.68
2023-01-15T00:41:26.268Z,8.69
2023-01-15T00:44:29.454Z,8.69
2023-01-15T00:47:32.588Z,8.69
2023-01-15T00:50:37.059Z,8.68
2023-01-15T00:53:40.106Z,8.68
2023-01-15T00:56:43.157Z,8.70
2023-01-15T00:59:46.276Z,8.73
2023-01-15T01:02:49.358Z,8.80
2023-01-15T01:05:54.801Z,8.85
2023-01-15T01:08:58.071Z,8.87
2023-01-15T01:12:02.719Z,8.91
2023-01-15T01:15:07.357Z,8.86
2023-01-15T01:18:12.847Z,8.91
2023-01-15T01:21:23.068Z,8.97
2023-01-15T01:24:26.490Z,9.01
2023-01-15T01:27:29.542Z,9.03
2023-01-15T01:30:32.749Z,9.06
2023-01-15T01:33:36.552Z,9.13
2023-01-15T01:36:45.298Z,9.19
2023-01-15T01:39:51.361Z,9.18
2023-01-15T01:42:54.817Z,9.24
2023-01-15T01:45:58.005Z,9.27
2023-01-15T01:49:08.751Z,9.22
2023-01-15T01:52:17.143Z,9.29
2023-01-15T01:55:24.661Z,9.30
2023-01-15T01:58:32.326Z,9.25
2023-01-15T02:01:36.136Z,9.26
2023-01-15T02:04:42.919Z,9.23
2023-01-15T02:07:47.251Z,9.19
2023-01-15T02:10:54.363Z,9.13
2023-01-15T02:14:10.938Z,9.08
2023-01-15T02:17:29.315Z,9.04
2023-01-15T02:20:42.997Z,9.04
2023-01-15T02:24:08.840Z,9.01
2023-01-15T02:27:20.735Z,8.98
2023-01-15T02:30:31.131Z,8.96
2023-01-15T02:33:42.292Z,8.92
2023-01-15T02:36:54.675Z,8.91
2023-01-15T02:40:03.462Z,8.86
2023-01-15T02:43:12.312Z,8.86
2023-01-15T02:46:17.984Z,8.83
2023-01-15T02:49:23.190Z,8.79
2023-01-15T02:52:36.023Z,8.73
2023-01-15T02:55:45.823Z,8.70
2023-01-15T02:58:56.190Z,8.73
2023-01-15T03:02:05.151Z,8.74
2023-01-15T03:05:13.977Z,8.72
2023-01-15T03:08:17.141Z,8.75
2023-01-15T03:11:23.113Z,8.74
2023-01-15T03:14:43.030Z,8.73
2023-01-15T03:17:54.415Z,8.73
2023-01-15T03:21:02.824Z,8.72
2023-01-15T03:24:08.859Z,8.75
2023-01-15T03:27:17.421Z,8.73
2023-01-15T03:30:28.778Z,8.73
2023-01-15T03:33:35.343Z,8.71
2023-01-15T03:36:41.006Z,8.69
2023-01-15T03:39:44.749Z,8.72
2023-01-15T03:43:17.807Z,8.73
2023-01-15T03:46:40.974Z,8.71
2023-01-15T03:49:57.565Z,8.73
2023-01-15T03:53:17.102Z,8.66
2023-01-15T03:56:37.823Z,8.68
2023-01-15T03:59:52.509Z,8.71
2023-01-15T04:02:59.397Z,8.75
2023-01-15T04:06:10.469Z,8.72
2023-01-15T04:09:15.828Z,8.71
2023-01-15T04:12:21.491Z,8.77
2023-01-15T04:15:25.676Z,8.80
2023-01-15T04:18:30.442Z,8.21
2023-01-15T04:21:35.873Z,7.93
2023-01-15T04:24:39.456Z,7.80
2023-01-15T04:27:45.021Z,7.72
2023-01-15T04:30:48.233Z,7.66
2023-01-15T04:33:53.895Z,7.60
2023-01-15T04:36:58.826Z,7.53
2023-01-15T04:40:02.052Z,7.47
2023-01-15T04:43:27.914Z,7.09
2023-01-15T04:46:35.671Z,6.66
2023-01-15T04:49:40.057Z,6.55
2023-01-15T04:52:43.151Z,6.39
2023-01-15T04:55:49.062Z,6.29
2023-01-15T04:58:54.689Z,6.27
2023-01-15T05:02:04.621Z,6.17
2023-01-15T05:05:10.998Z,6.08
2023-01-15T05:08:14.061Z,6.07
2023-01-15T05:11:17.123Z,6.05
2023-01-15T05:14:20.439Z,5.97
2023-01-15T05:17:23.456Z,5.99
2023-01-15T05:20:27.975Z,6.03
2023-01-15T05:23:30.995Z,6.01
2023-01-15T05:26:36.199Z,5.98
2023-01-15T05:29:39.357Z,6.03
2023-01-15T05:32:42.389Z,6.04
2023-01-15T05:35:46.914Z,6.01
2023-01-15T05:38:50.137Z,6.01
2023-01-15T05:41:54.037Z,5.99
2023-01-15T05:44:57.005Z,6.00
2023-01-15T05:47:59.959Z,5.98
2023-01-15T05:51:05.634Z,5.99
2023-01-15T05:54:12.808Z,6.00
2023-01-15T05:57:15.812Z,5.98
2023-01-15T06:00:20.515Z,6.03
2023-01-15T06:03:24.356Z,6.01
2023-01-15T06:06:29.107Z,6.02
2023-01-15T06:09:32.159Z,6.03
2023-01-15T06:12:35.146Z,6.02
2023-01-15T06:15:38.388Z,5.95
2023-01-15T06:18:42.712Z,5.94
2023-01-15T06:21:47.166Z,6.02
2023-01-15T06:24:50.117Z,6.06
2023-01-15T06:27:54.876Z,6.10
2023-01-15T06:31:06.964Z,6.10
2023-01-15T06:34:10.157Z,6.07
2023-01-15T06:37:14.584Z,6.11
2023-01-15T06:40:18.780Z,6.12
2023-01-15T06:43:40.014Z,6.14
2023-01-15T06:47:04.556Z,6.09
2023-01-15T06:50:08.726Z,6.11
2023-01-15T06:53:14.772Z,6.12
2023-01-15T06:56:19.296Z,6.16
2023-01-15T06:59:22.724Z,6.10
2023-01-15T07:02:29.355Z,6.13
2023-01-15T07:05:32.901Z,6.11
2023-01-15T07:08:39.365Z,6.07
2023-01-15T07:11:50.224Z,6.06
2023-01-15T07:14:54.875Z,5.94
2023-01-15T07:18:08.431Z,5.98
2023-01-15T07:21:16.751Z,5.95
2023-01-15T07:24:21.274Z,5.89
2023-01-15T07:27:24.825Z,5.76
2023-01-15T07:30:30.929Z,5.84
2023-01-15T07:33:41.661Z,5.86
2023-01-15T07:36:50.085Z,5.88
2023-01-15T07:39:54.403Z,5.87
2023-01-15T07:43:15.240Z,5.87
2023-01-15T07:46:35.810Z,5.84
2023-01-15T07:49:48.719Z,5.80
2023-01-15T07:52:54.712Z,5.77
2023-01-15T07:55:59.087Z,5.80
2023-01-15T07:59:02.081Z,5.79
2023-01-15T08:02:05.664Z,5.76
2023-01-15T08:05:17.535Z,5.79
2023-01-15T08:08:20.632Z,5.81
2023-01-15T08:11:42.840Z,5.83
2023-01-15T08:15:07.369Z,5.84
2023-01-15T08:18:10.994Z,5.84
2023-01-15T08:21:19.503Z,5.74
2023-01-15T08:24:22.646Z,5.73
2023-01-15T08:27:32.707Z,5.78
2023-01-15T08:30:36.754Z,5.80
2023-01-15T08:33:41.887Z,5.78
2023-01-15T08:36:44.899Z,5.85
2023-01-15T08:39:48.069Z,5.84
2023-01-15T08:42:52.356Z,5.85
2023-01-15T08:45:58.932Z,5.81
2023-01-15T08:49:02.252Z,5.86
2023-01-15T08:52:05.571Z,5.92
2023-01-15T08:55:09.656Z,5.95
2023-01-15T08:58:14.265Z,5.94
2023-01-15T09:01:17.705Z,5.97
2023-01-15T09:04:24.617Z,6.00
2023-01-15T09:07:27.844Z,6.01
2023-01-15T09:10:33.581Z,6.05
2023-01-15T09:13:38.451Z,6.06
2023-01-15T09:16:41.819Z,6.04
2023-01-15T09:19:47.481Z,6.03
2023-01-15T09:22:51.483Z,6.05
2023-01-15T09:25:55.125Z,6.10
2023-01-15T09:29:00.262Z,6.11
2023-01-15T09:32:03.491Z,6.14
2023-01-15T09:35:08.104Z,6.16
2023-01-15T09:38:13.070Z,6.14
2023-01-15T09:41:31.510Z,6.18
2023-01-15T09:44:47.410Z,6.20
2023-01-15T09:48:11.780Z,6.27
2023-01-15T09:51:25.014Z,6.24
2023-01-15T09:54:49.901Z,6.26
2023-01-15T09:57:57.252Z,6.36
2023-01-15T10:01:01.644Z,6.41
2023-01-15T10:04:15.325Z,6.46
2023-01-15T10:07:26.061Z,6.49
2023-01-15T10:10:35.016Z,6.53
2023-01-15T10:13:48.334Z,6.55
2023-01-15T10:16:54.366Z,6.52
2023-01-15T10:20:01.946Z,6.51
2023-01-15T10:23:26.762Z,6.62
2023-01-15T10:26:40.593Z,6.66
2023-01-15T10:29:46.657Z,6.71
2023-01-15T10:33:03.173Z,6.76
2023-01-15T10:36:15.431Z,6.77
2023-01-15T10:39:27.972Z,6.79
2023-01-15T10:42:45.471Z,6.84
2023-01-15T10:46:00.218Z,6.82
2023-01-15T10:49:13.570Z,6.85
2023-01-15T10:52:30.400Z,6.90
2023-01-15T10:55:38.111Z,6.90
2023-01-15T10:58:50.856Z,6.93
2023-01-15T11:02:03.308Z,6.92
2023-01-15T11:05:17.124Z,6.97
2023-01-15T11:09:08.682Z,7.02
2023-01-15T11:12:37.790Z,7.09
2023-01-15T11:16:19.405Z,7.09
2023-01-15T11:19:38.518Z,7.12
2023-01-15T11:22:55.176Z,7.10
2023-01-15T11:26:13.530Z,7.13
2023-01-15T11:29:33.142Z,7.15
2023-01-15T11:32:40.188Z,7.15
2023-01-15T11:36:00.402Z,7.06
2023-01-15T11:39:05.126Z,7.09
2023-01-15T11:42:38.756Z,7.12
2023-01-15T11:46:09.166Z,7.15
2023-01-15T11:49:40.132Z,7.18
2023-01-15T11:52:49.092Z,7.16
2023-01-15T11:56:03.473Z,7.16
2023-01-15T11:59:15.055Z,7.14
2023-01-15T12:02:50.356Z,7.11
2023-01-15T12:06:09.509Z,7.10
2023-01-15T12:10:15.758Z,7.12
2023-01-15T12:13:45.744Z,7.13
2023-01-15T12:17:30.989Z,7.14
2023-01-15T12:21:07.417Z,7.12
2023-01-15T12:25:43.187Z,7.15
2023-01-15T12:29:41.650Z,7.16
2023-01-15T12:33:07.143Z,7.21
2023-01-15T12:36:20.660Z,7.22
2023-01-15T12:39:35.795Z,7.26
2023-01-15T12:42:56.837Z,7.19
2023-01-15T12:46:08.893Z,7.25
2023-01-15T12:49:29.270Z,7.24
2023-01-15T12:52:38.732Z,7.18
2023-01-15T12:55:48.965Z,7.16
2023-01-15T12:58:55.894Z,7.17
2023-01-15T13:02:21.403Z,7.17
2023-01-15T13:05:30.857Z,7.23
2023-01-15T13:08:39.232Z,7.21
2023-01-15T13:11:42.333Z,7.27
2023-01-15T13:14:46.870Z,7.26
2023-01-15T13:18:03.781Z,7.24
2023-01-15T13:21:13.161Z,7.32
2023-01-15T13:24:37.799Z,7.35
2023-01-15T13:28:02.683Z,7.32
2023-01-15T13:31:28.300Z,7.28
2023-01-15T13:34:42.108Z,7.17
2023-01-15T13:37:49.380Z,7.17
2023-01-15T13:40:57.269Z,7.17
2023-01-15T13:44:03.644Z,7.21
2023-01-15T13:47:09.829Z,7.14
2023-01-15T13:50:21.199Z,7.07
2023-01-15T13:53:29.763Z,7.00
2023-01-15T13:56:36.116Z,6.96
2023-01-15T13:59:45.531Z,6.95
2023-01-15T14:02:54.735Z,6.97
2023-01-15T14:06:03.324Z,7.05
2023-01-15T14:09:07.079Z,7.08
2023-01-15T14:12:21.448Z,7.04
2023-01-15T14:15:41.584Z,6.96
2023-01-15T14:19:08.263Z,6.95
2023-01-15T14:22:41.537Z,6.92
2023-01-15T14:26:01.804Z,6.91
2023-01-15T14:29:29.227Z,6.82
2023-01-15T14:32:49.583Z,6.85
2023-01-15T14:35:53.954Z,6.80
2023-01-15T14:39:01.827Z,6.79
2023-01-15T14:42:33.315Z,6.74
2023-01-15T14:45:39.666Z,6.68
2023-01-15T14:48:44.957Z,6.67
2023-01-15T14:51:51.545Z,6.59
2023-01-15T14:55:00.856Z,6.58
2023-01-15T14:58:17.078Z,6.58
2023-01-15T15:01:35.411Z,6.59
2023-01-15T15:04:44.289Z,6.58
2023-01-15T15:07:52.863Z,6.56
2023-01-15T15:11:00.023Z,6.57
2023-01-15T15:14:07.642Z,6.46
2023-01-15T15:17:24.151Z,6.40
2023-01-15T15:20:45.562Z,6.27
2023-01-15T15:23:57.024Z,6.26
2023-01-15T15:27:17.604Z,6.25
2023-01-15T15:30:21.124Z,6.18
2023-01-15T15:33:34.261Z,6.11
2023-01-15T15:36:42.734Z,6.05
2023-01-15T15:39:54.171Z,6.01
2023-01-15T15:43:33.585Z,6.01
2023-01-15T15:46:55.216Z,5.96
2023-01-15T15:49:58.508Z,5.90
2023-01-15T15:53:04.465Z,5.86
2023-01-15T15:56:08.069Z,5.76
2023-01-15T15:59:30.426Z,5.74
2023-01-15T16:02:37.298Z,5.64
2023-01-15T16:05:41.669Z,5.61
2023-01-15T16:09:02.743Z,5.60
2023-01-15T16:12:07.440Z,5.54
2023-01-15T16:15:19.584Z,5.47
2023-01-15T16:18:27.244Z,5.44
2023-01-15T16:21:33.394Z,5.44
2023-01-15T16:24:37.927Z,5.40
2023-01-15T16:27:42.004Z,5.38
2023-01-15T16:30:46.540Z,5.42
2023-01-15T16:33:56.376Z,5.40
2023-01-15T16:37:00.715Z,5.31
2023-01-15T16:40:13.019Z,5.27
2023-01-15T16:43:19.659Z,5.24
2023-01-15T16:46:28.049Z,5.31
2023-01-15T16:49:33.151Z,5.28
2023-01-15T16:52:50.704Z,5.23
2023-01-15T16:55:56.798Z,5.26
2023-01-15T16:58:59.900Z,5.21
2023-01-15T17:02:15.863Z,5.29
2023-01-15T17:05:24.961Z,5.31
2023-01-15T17:08:36.550Z,5.25
2023-01-15T17:11:39.869Z,5.29
2023-01-15T17:14:47.598Z,5.33
2023-01-15T17:18:46.502Z,5.29
2023-01-15T17:21:49.539Z,5.34
2023-01-15T17:24:55.222Z,5.25
2023-01-15T17:27:59.476Z,5.27
2023-01-15T17:31:09.096Z,5.35
2023-01-15T17:34:13.584Z,5.37
2023-01-15T17:37:16.638Z,5.33
2023-01-15T17:40:20.645Z,5.31
2023-01-15T17:43:23.670Z,5.38
2023-01-15T17:46:26.709Z,5.40
2023-01-15T17:49:32.940Z,5.38
2023-01-15T17:52:36.084Z,5.39
2023-01-15T17:55:59.612Z,5.44
2023-01-15T17:59:27.907Z,5.42
2023-01-15T18:02:48.372Z,5.44
2023-01-15T18:05:53.041Z,5.44
2023-01-15T18:09:00.044Z,5.39
2023-01-15T18:12:04.345Z,5.43
2023-01-15T18:15:09.051Z,5.49
2023-01-15T18:18:12.240Z,5.50
2023-01-15T18:21:18.863Z,5.48
2023-01-15T18:24:22.761Z,5.51
2023-01-15T18:27:29.992Z,5.52
2023-01-15T18:30:34.798Z,5.51
2023-01-15T18:33:37.865Z,5.47
2023-01-15T18:36:42.230Z,5.43
2023-01-15T18:39:45.338Z,5.49
2023-01-15T18:43:05.729Z,5.48
2023-01-15T18:46:26.150Z,5.51
2023-01-15T18:49:29.828Z,5.50
2023-01-15T18:52:52.251Z,5.54
2023-01-15T18:55:55.551Z,5.49
2023-01-15T18:59:25.285Z,5.51
2023-01-15T19:02:45.241Z,5.44
2023-01-15T19:05:48.511Z,5.45
2023-01-15T19:08:53.108Z,5.52
2023-01-15T19:11:56.580Z,5.47
2023-01-15T19:15:17.196Z,5.49
2023-01-15T19:18:37.629Z,5.48
2023-01-15T19:21:42.706Z,5.45
2023-01-15T19:24:47.783Z,5.51
2023-01-15T19:27:51.675Z,5.41
2023-01-15T19:31:12.232Z,5.43
2023-01-15T19:34:33.217Z,5.41
2023-01-15T19:37:39.635Z,5.39
2023-01-15T19:40:45.536Z,5.34
2023-01-15T19:44:06.124Z,5.33
2023-01-15T19:47:31.241Z,5.30
2023-01-15T19:50:37.910Z,5.38
2023-01-15T19:53:41.362Z,5.48
2023-01-15T19:56:45.774Z,5.47
2023-01-15T19:59:48.869Z,5.46
2023-01-15T20:02:58.738Z,5.47
2023-01-15T20:06:08.362Z,5.47
2023-01-15T20:09:12.119Z,5.54
2023-01-15T20:12:39.865Z,5.56
2023-01-15T20:15:49.879Z,5.51
2023-01-15T20:18:57.072Z,5.52
2023-01-15T20:22:05.316Z,5.52
2023-01-15T20:25:10.376Z,5.51
2023-01-15T20:28:15.036Z,5.47
2023-01-15T20:31:19.872Z,5.49
2023-01-15T20:34:23.159Z,5.45
2023-01-15T20:37:26.577Z,5.42
2023-01-15T20:40:30.892Z,5.44
2023-01-15T20:43:56.315Z,5.40
2023-01-15T20:46:59.877Z,5.36
2023-01-15T20:50:05.462Z,5.28
2023-01-15T20:53:11.389Z,5.31
2023-01-15T20:56:16.770Z,5.29
2023-01-15T20:59:21.588Z,5.33
2023-01-15T21:02:25.284Z,5.32
2023-01-15T21:05:31.514Z,5.32
2023-01-15T21:08:58.026Z,5.24
2023-01-15T21:12:07.770Z,5.22
2023-01-15T21:15:13.580Z,5.20
2023-01-15T21:18:19.963Z,5.18
2023-01-15T21:21:23.510Z,5.21
2023-01-15T21:24:26.908Z,5.21
2023-01-15T21:27:35.994Z,5.18
2023-01-15T21:30:44.320Z,5.20
2023-01-15T21:33:48.089Z,5.24
2023-01-15T21:36:51.253Z,5.27
2023-01-15T21:39:54.626Z,5.26
2023-01-15T21:43:16.274Z,5.27
2023-01-15T21:46:24.381Z,5.25
2023-01-15T21:49:28.524Z,5.30
2023-01-15T21:52:33.583Z,5.29
2023-01-15T21:55:36.852Z,5.34
2023-01-15T21:58:40.401Z,5.37
2023-01-15T22:01:45.033Z,5.38
2023-01-15T22:04:48.746Z,5.44
2023-01-15T22:07:52.098Z,5.44
2023-01-15T22:10:55.193Z,5.46
2023-01-15T22:13:58.257Z,5.43
2023-01-15T22:17:05.024Z,5.40
2023-01-15T22:20:10.111Z,5.40
2023-01-15T22:23:15.877Z,5.30
2023-01-15T22:26:19.367Z,5.27
2023-01-15T22:29:22.920Z,5.24
2023-01-15T22:32:27.265Z,5.19
2023-01-15T22:35:33.570Z,5.14
2023-01-15T22:38:36.938Z,5.15
2023-01-15T22:42:03.844Z,5.14
2023-01-15T22:45:08.010Z,5.07
2023-01-15T22:48:12.881Z,5.03
2023-01-15T22:51:15.885Z,5.03
2023-01-15T22:54:19.359Z,5.00
2023-01-15T22:57:22.592Z,5.00
2023-01-15T23:00:25.811Z,4.98
2023-01-15T23:03:30.535Z,4.98
2023-01-15T23:06:33.981Z,5.01
2023-01-15T23:09:39.836Z,4.98
2023-01-15T23:12:44.325Z,5.01
2023-01-15T23:15:47.679Z,5.01
2023-01-15T23:18:55.311Z,5.00
2023-01-15T23:22:00.468Z,4.94
2023-01-15T23:25:04.033Z,4.82
2023-01-15T23:28:12.345Z,4.88
2023-01-15T23:31:15.673Z,4.91
2023-01-15T23:34:20.707Z,4.90
2023-01-15T23:37:29.445Z,4.85
2023-01-15T23:40:32.615Z,4.88
2023-01-15T23:43:53.528Z,4.81
2023-01-15T23:46:56.879Z,4.93
2023-01-15T23:50:03.618Z,4.95
2023-01-15T23:53:08.424Z,4.98
2023-01-15T23:56:13.627Z,4.98
2023-01-15T23:59:19.727Z,4.98
